Startpagina
METAR-TAF:

METAR-TAF

Vliegvelden :

Schaffen

Diest, België

breedte: 51-00N, lengte: 005-04E, hoogte: 30 m

Actueel weer

Dit bericht is 19 minuten geleden gemaakt, om 12:25 UTC
Wind 3 kt uit het oosten
Temperatuur 6°C
Vochtigheid 70%
Druk 1016 hPa
Zicht 10 km of meer

METAR: EBDT 201225Z AUTO 10003KT 9999 NCD 06/01 Q1016 BLU

Tijdstip: 13:44 (12:44 UTC)


TAF: ontbreekt

Waarnemingen en weersverwachtingen van meer dan 4000 vliegvelden (METAR en TAF).

De beschikbare stations zijn de gele en rode punten op de kaart.

Ga met uw muis naar het station om de naam te zien.

Klik dan om waarnemingen en weersverwachtingen te zien.

kaart wijzigen: klik op de groene knoppen met een zwart kruis om in te zoomen, op de groene knop met een streepje om uit te zoomen of op de groene pijlen voor aangrenzende kaarten.


METAR-TAF: